If you wish to contribute or participate in the discussions about articles you are invited to join SKYbrary as a registered user

 Actions

Annecy-Haute-Savoie-Mont Blanc Airport

From SKYbrary Wiki

LFLP
Airport
ICAO: LFLP – IATA: NCY
Summary
Name Annecy-Haute-Savoie-Mont Blanc Airport
Region Europe
Territory France FR.gif
Location , Rhone-Alpes
Serving Annecy
Elevation 463.601 m
1,521 ft
1,521 ft463.601 m
Type medium airport
Coordinates 45° 55' 45.24" N, 6° 5' 55.55" E
Runways
Designator Length Width Surface ROPS
4/22 1630 m5,347.769 ft
30 m98.425 ft
ASP yes/yes


METAR
Observation LFLP 120530Z AUTO VRB02KT CAVOK M03/M04 Q1020 TEMPO 0600 BCFG
Station ANNECY/MEYTHET
Date/Time 12 December 2018 05:30:00
Wind direction °
Wind speed 02 kts
Lowest cloud amount clouds and visibility OK
Temperature
Dew point
Humidity 92%
QNH 1020 hPa
Weather condition n/a